sensor_id;sensor_type;location;lat;lon;timestamp;P1;durP1;ratioP1;P2;durP2;ratioP2
51190;SDS011;37253;48.736;9.294;2023-05-10T00:00:35;1.92;;;1.17;;
51190;SDS011;37253;48.736;9.294;2023-05-10T00:02:36;1.92;;;1.20;;
51190;SDS011;37253;48.736;9.294;2023-05-10T00:04:36;3.83;;;1.50;;
51190;SDS011;37253;48.736;9.294;2023-05-10T00:06:36;2.47;;;1.30;;
51190;SDS011;37253;48.736;9.294;2023-05-10T00:08:37;1.48;;;1.17;;
51190;SDS011;37253;48.736;9.294;2023-05-10T00:10:37;3.03;;;1.25;;
51190;SDS011;37253;48.736;9.294;2023-05-10T00:12:38;2.08;;;1.40;;
51190;SDS011;37253;48.736;9.294;2023-05-10T00:14:38;1.90;;;1.42;;
51190;SDS011;37253;48.736;9.294;2023-05-10T00:16:38;3.28;;;1.27;;
51190;SDS011;37253;48.736;9.294;2023-05-10T00:18:39;2.25;;;1.10;;
51190;SDS011;37253;48.736;9.294;2023-05-10T00:20:39;3.50;;;1.10;;
51190;SDS011;37253;48.736;9.294;2023-05-10T00:22:40;1.80;;;1.10;;
51190;SDS011;37253;48.736;9.294;2023-05-10T00:24:40;6.78;;;1.30;;
51190;SDS011;37253;48.736;9.294;2023-05-10T00:26:40;3.00;;;1.23;;
51190;SDS011;37253;48.736;9.294;2023-05-10T00:28:42;1.77;;;1.30;;
51190;SDS011;37253;48.736;9.294;2023-05-10T00:30:42;3.08;;;1.10;;
51190;SDS011;37253;48.736;9.294;2023-05-10T00:32:42;2.63;;;1.00;;
51190;SDS011;37253;48.736;9.294;2023-05-10T00:34:43;2.95;;;1.20;;
51190;SDS011;37253;48.736;9.294;2023-05-10T00:36:43;2.00;;;1.10;;
51190;SDS011;37253;48.736;9.294;2023-05-10T00:38:44;2.30;;;1.40;;
51190;SDS011;37253;48.736;9.294;2023-05-10T00:40:44;2.90;;;1.10;;
51190;SDS011;37253;48.736;9.294;2023-05-10T00:42:44;1.67;;;1.25;;
51190;SDS011;37253;48.736;9.294;2023-05-10T00:44:44;1.95;;;1.00;;
51190;SDS011;37253;48.736;9.294;2023-05-10T00:46:46;1.27;;;1.10;;
51190;SDS011;37253;48.736;9.294;2023-05-10T00:48:48;1.45;;;0.90;;
51190;SDS011;37253;48.736;9.294;2023-05-10T00:50:48;1.75;;;1.00;;
51190;SDS011;37253;48.736;9.294;2023-05-10T00:52:49;2.35;;;1.05;;
51190;SDS011;37253;48.736;9.294;2023-05-10T00:54:50;2.15;;;1.10;;
51190;SDS011;37253;48.736;9.294;2023-05-10T00:56:51;1.73;;;0.98;;
51190;SDS011;37253;48.736;9.294;2023-05-10T00:58:52;1.90;;;1.00;;
51190;SDS011;37253;48.736;9.294;2023-05-10T01:00:52;2.92;;;0.93;;
51190;SDS011;37253;48.736;9.294;2023-05-10T01:02:54;1.50;;;0.90;;
51190;SDS011;37253;48.736;9.294;2023-05-10T01:04:55;3.15;;;1.10;;
51190;SDS011;37253;48.736;9.294;2023-05-10T01:06:55;1.60;;;0.90;;
51190;SDS011;37253;48.736;9.294;2023-05-10T01:08:56;1.90;;;0.90;;
51190;SDS011;37253;48.736;9.294;2023-05-10T01:10:56;2.17;;;0.93;;
51190;SDS011;37253;48.736;9.294;2023-05-10T01:12:57;1.70;;;1.10;;
51190;SDS011;37253;48.736;9.294;2023-05-10T01:14:59;1.00;;;0.90;;
51190;SDS011;37253;48.736;9.294;2023-05-10T01:17:00;1.58;;;0.93;;
51190;SDS011;37253;48.736;9.294;2023-05-10T01:19:02;1.88;;;1.00;;
51190;SDS011;37253;48.736;9.294;2023-05-10T01:23:15;1.67;;;0.93;;
51190;SDS011;37253;48.736;9.294;2023-05-10T01:28:14;1.73;;;1.20;;
51190;SDS011;37253;48.736;9.294;2023-05-10T01:32:43;1.60;;;1.10;;
51190;SDS011;37253;48.736;9.294;2023-05-10T01:34:53;2.15;;;0.80;;
51190;SDS011;37253;48.736;9.294;2023-05-10T01:39:01;1.83;;;0.75;;
51190;SDS011;37253;48.736;9.294;2023-05-10T01:41:18;0.80;;;0.77;;
51190;SDS011;37253;48.736;9.294;2023-05-10T01:43:55;0.85;;;0.73;;
51190;SDS011;37253;48.736;9.294;2023-05-10T01:46:05;1.75;;;0.80;;
51190;SDS011;37253;48.736;9.294;2023-05-10T01:48:11;1.00;;;0.70;;
51190;SDS011;37253;48.736;9.294;2023-05-10T01:50:22;4.82;;;1.00;;
51190;SDS011;37253;48.736;9.294;2023-05-10T01:54:44;2.78;;;0.88;;
51190;SDS011;37253;48.736;9.294;2023-05-10T01:56:55;0.88;;;0.82;;
51190;SDS011;37253;48.736;9.294;2023-05-10T01:58:57;1.17;;;0.75;;
51190;SDS011;37253;48.736;9.294;2023-05-10T02:00:59;0.85;;;0.80;;
51190;SDS011;37253;48.736;9.294;2023-05-10T02:03:04;2.47;;;0.80;;
51190;SDS011;37253;48.736;9.294;2023-05-10T02:05:06;1.02;;;0.80;;
51190;SDS011;37253;48.736;9.294;2023-05-10T02:07:07;1.52;;;0.80;;
51190;SDS011;37253;48.736;9.294;2023-05-10T02:09:08;1.00;;;0.73;;
51190;SDS011;37253;48.736;9.294;2023-05-10T02:11:10;1.08;;;0.73;;
51190;SDS011;37253;48.736;9.294;2023-05-10T02:15:15;2.08;;;0.60;;
51190;SDS011;37253;48.736;9.294;2023-05-10T02:17:22;1.77;;;0.80;;
51190;SDS011;37253;48.736;9.294;2023-05-10T02:19:23;0.70;;;0.70;;
51190;SDS011;37253;48.736;9.294;2023-05-10T02:21:23;2.00;;;0.80;;
51190;SDS011;37253;48.736;9.294;2023-05-10T02:23:24;1.20;;;0.80;;
51190;SDS011;37253;48.736;9.294;2023-05-10T02:25:26;0.85;;;0.70;;
51190;SDS011;37253;48.736;9.294;2023-05-10T02:27:27;1.38;;;0.63;;
51190;SDS011;37253;48.736;9.294;2023-05-10T02:29:27;0.93;;;0.60;;
51190;SDS011;37253;48.736;9.294;2023-05-10T02:31:28;1.48;;;0.70;;
51190;SDS011;37253;48.736;9.294;2023-05-10T02:33:30;0.60;;;0.60;;
51190;SDS011;37253;48.736;9.294;2023-05-10T02:35:31;1.30;;;0.75;;
51190;SDS011;37253;48.736;9.294;2023-05-10T02:37:33;1.23;;;0.70;;
51190;SDS011;37253;48.736;9.294;2023-05-10T02:39:34;0.88;;;0.70;;
51190;SDS011;37253;48.736;9.294;2023-05-10T02:41:35;0.50;;;0.50;;
51190;SDS011;37253;48.736;9.294;2023-05-10T02:43:36;2.53;;;0.60;;
51190;SDS011;37253;48.736;9.294;2023-05-10T02:45:37;1.00;;;0.60;;
51190;SDS011;37253;48.736;9.294;2023-05-10T02:47:38;0.70;;;0.57;;
51190;SDS011;37253;48.736;9.294;2023-05-10T02:49:39;0.98;;;0.65;;
51190;SDS011;37253;48.736;9.294;2023-05-10T02:51:44;0.60;;;0.60;;
51190;SDS011;37253;48.736;9.294;2023-05-10T02:53:47;1.10;;;0.60;;
51190;SDS011;37253;48.736;9.294;2023-05-10T02:55:50;0.82;;;0.70;;
51190;SDS011;37253;48.736;9.294;2023-05-10T02:57:52;0.77;;;0.65;;
51190;SDS011;37253;48.736;9.294;2023-05-10T02:59:56;2.10;;;0.57;;
51190;SDS011;37253;48.736;9.294;2023-05-10T03:01:56;0.60;;;0.60;;
51190;SDS011;37253;48.736;9.294;2023-05-10T03:03:57;0.98;;;0.60;;
51190;SDS011;37253;48.736;9.294;2023-05-10T03:05:57;0.57;;;0.50;;
51190;SDS011;37253;48.736;9.294;2023-05-10T03:07:58;1.15;;;0.60;;
51190;SDS011;37253;48.736;9.294;2023-05-10T03:10:00;1.25;;;0.60;;
51190;SDS011;37253;48.736;9.294;2023-05-10T03:12:07;0.77;;;0.57;;
51190;SDS011;37253;48.736;9.294;2023-05-10T03:14:16;1.00;;;0.50;;
51190;SDS011;37253;48.736;9.294;2023-05-10T03:16:25;1.73;;;0.60;;
51190;SDS011;37253;48.736;9.294;2023-05-10T03:20:36;1.02;;;0.70;;
51190;SDS011;37253;48.736;9.294;2023-05-10T03:22:44;1.35;;;0.55;;
51190;SDS011;37253;48.736;9.294;2023-05-10T03:24:45;0.55;;;0.50;;
51190;SDS011;37253;48.736;9.294;2023-05-10T03:26:47;0.70;;;0.63;;
51190;SDS011;37253;48.736;9.294;2023-05-10T03:28:48;1.20;;;0.52;;
51190;SDS011;37253;48.736;9.294;2023-05-10T03:30:49;0.98;;;0.70;;
51190;SDS011;37253;48.736;9.294;2023-05-10T03:32:52;0.50;;;0.40;;
51190;SDS011;37253;48.736;9.294;2023-05-10T03:34:52;0.60;;;0.60;;
51190;SDS011;37253;48.736;9.294;2023-05-10T03:36:52;0.70;;;0.65;;
51190;SDS011;37253;48.736;9.294;2023-05-10T03:38:53;0.63;;;0.40;;
51190;SDS011;37253;48.736;9.294;2023-05-10T03:40:53;0.60;;;0.50;;
51190;SDS011;37253;48.736;9.294;2023-05-10T03:42:54;0.50;;;0.50;;
51190;SDS011;37253;48.736;9.294;2023-05-10T03:44:55;1.63;;;0.63;;
51190;SDS011;37253;48.736;9.294;2023-05-10T03:46:55;1.17;;;0.50;;
51190;SDS011;37253;48.736;9.294;2023-05-10T03:48:56;0.50;;;0.50;;
51190;SDS011;37253;48.736;9.294;2023-05-10T03:50:57;2.22;;;0.60;;
51190;SDS011;37253;48.736;9.294;2023-05-10T03:52:57;0.57;;;0.52;;
51190;SDS011;37253;48.736;9.294;2023-05-10T03:54:57;2.65;;;0.60;;
51190;SDS011;37253;48.736;9.294;2023-05-10T03:56:58;0.82;;;0.60;;
51190;SDS011;37253;48.736;9.294;2023-05-10T03:58:58;1.70;;;0.50;;
51190;SDS011;37253;48.736;9.294;2023-05-10T04:00:58;0.75;;;0.40;;
51190;SDS011;37253;48.736;9.294;2023-05-10T04:02:59;0.50;;;0.50;;
51190;SDS011;37253;48.736;9.294;2023-05-10T04:04:59;0.50;;;0.50;;
51190;SDS011;37253;48.736;9.294;2023-05-10T04:06:59;0.47;;;0.47;;
51190;SDS011;37253;48.736;9.294;2023-05-10T04:09:00;0.73;;;0.45;;
51190;SDS011;37253;48.736;9.294;2023-05-10T04:11:07;0.73;;;0.40;;
51190;SDS011;37253;48.736;9.294;2023-05-10T04:13:08;0.70;;;0.50;;
51190;SDS011;37253;48.736;9.294;2023-05-10T04:15:08;0.43;;;0.40;;
51190;SDS011;37253;48.736;9.294;2023-05-10T04:17:09;0.85;;;0.50;;
51190;SDS011;37253;48.736;9.294;2023-05-10T04:19:10;0.50;;;0.50;;
51190;SDS011;37253;48.736;9.294;2023-05-10T04:21:14;0.63;;;0.60;;
51190;SDS011;37253;48.736;9.294;2023-05-10T04:23:14;0.75;;;0.40;;
51190;SDS011;37253;48.736;9.294;2023-05-10T04:25:16;0.70;;;0.40;;
51190;SDS011;37253;48.736;9.294;2023-05-10T04:27:16;1.40;;;0.60;;
51190;SDS011;37253;48.736;9.294;2023-05-10T04:29:17;0.77;;;0.50;;
51190;SDS011;37253;48.736;9.294;2023-05-10T04:31:17;0.70;;;0.40;;
51190;SDS011;37253;48.736;9.294;2023-05-10T04:33:17;1.00;;;0.40;;
51190;SDS011;37253;48.736;9.294;2023-05-10T04:35:18;0.35;;;0.35;;
51190;SDS011;37253;48.736;9.294;2023-05-10T04:37:18;1.88;;;0.50;;
51190;SDS011;37253;48.736;9.294;2023-05-10T04:39:19;0.40;;;0.40;;
51190;SDS011;37253;48.736;9.294;2023-05-10T04:41:19;0.80;;;0.45;;
51190;SDS011;37253;48.736;9.294;2023-05-10T04:43:20;0.60;;;0.40;;
51190;SDS011;37253;48.736;9.294;2023-05-10T04:45:20;0.88;;;0.50;;
51190;SDS011;37253;48.736;9.294;2023-05-10T04:47:21;0.40;;;0.40;;
51190;SDS011;37253;48.736;9.294;2023-05-10T04:49:21;0.57;;;0.45;;
51190;SDS011;37253;48.736;9.294;2023-05-10T04:51:21;0.40;;;0.40;;
51190;SDS011;37253;48.736;9.294;2023-05-10T04:53:22;0.50;;;0.40;;
51190;SDS011;37253;48.736;9.294;2023-05-10T04:55:22;0.70;;;0.50;;
51190;SDS011;37253;48.736;9.294;2023-05-10T04:57:22;1.85;;;0.40;;
51190;SDS011;37253;48.736;9.294;2023-05-10T04:59:23;0.75;;;0.40;;
51190;SDS011;37253;48.736;9.294;2023-05-10T05:01:23;1.20;;;0.57;;
51190;SDS011;37253;48.736;9.294;2023-05-10T05:03:23;1.10;;;0.40;;
51190;SDS011;37253;48.736;9.294;2023-05-10T05:05:24;0.93;;;0.40;;
51190;SDS011;37253;48.736;9.294;2023-05-10T05:07:24;1.00;;;0.40;;
51190;SDS011;37253;48.736;9.294;2023-05-10T05:09:25;1.42;;;0.47;;
51190;SDS011;37253;48.736;9.294;2023-05-10T05:11:25;0.80;;;0.40;;
51190;SDS011;37253;48.736;9.294;2023-05-10T05:13:25;0.95;;;0.50;;
51190;SDS011;37253;48.736;9.294;2023-05-10T05:15:26;1.40;;;0.40;;
51190;SDS011;37253;48.736;9.294;2023-05-10T05:17:26;0.73;;;0.40;;
51190;SDS011;37253;48.736;9.294;2023-05-10T05:19:26;0.57;;;0.40;;
51190;SDS011;37253;48.736;9.294;2023-05-10T05:21:27;1.35;;;0.50;;
51190;SDS011;37253;48.736;9.294;2023-05-10T05:23:28;0.82;;;0.40;;
51190;SDS011;37253;48.736;9.294;2023-05-10T05:25:29;0.57;;;0.47;;
51190;SDS011;37253;48.736;9.294;2023-05-10T05:27:29;0.47;;;0.30;;
51190;SDS011;37253;48.736;9.294;2023-05-10T05:29:29;0.65;;;0.40;;
51190;SDS011;37253;48.736;9.294;2023-05-10T05:31:30;0.60;;;0.40;;
51190;SDS011;37253;48.736;9.294;2023-05-10T05:33:30;0.52;;;0.30;;
51190;SDS011;37253;48.736;9.294;2023-05-10T05:35:30;1.58;;;0.40;;
51190;SDS011;37253;48.736;9.294;2023-05-10T05:37:31;0.30;;;0.30;;
51190;SDS011;37253;48.736;9.294;2023-05-10T05:39:31;0.30;;;0.30;;
51190;SDS011;37253;48.736;9.294;2023-05-10T05:41:31;1.05;;;0.40;;
51190;SDS011;37253;48.736;9.294;2023-05-10T05:43:32;0.38;;;0.38;;
51190;SDS011;37253;48.736;9.294;2023-05-10T05:45:32;1.63;;;0.40;;
51190;SDS011;37253;48.736;9.294;2023-05-10T05:47:32;0.40;;;0.40;;
51190;SDS011;37253;48.736;9.294;2023-05-10T05:49:32;0.93;;;0.47;;
51190;SDS011;37253;48.736;9.294;2023-05-10T05:51:33;0.30;;;0.30;;
51190;SDS011;37253;48.736;9.294;2023-05-10T05:53:34;1.40;;;0.30;;
51190;SDS011;37253;48.736;9.294;2023-05-10T05:55:35;0.32;;;0.32;;
51190;SDS011;37253;48.736;9.294;2023-05-10T05:57:35;0.30;;;0.30;;
51190;SDS011;37253;48.736;9.294;2023-05-10T05:59:35;0.30;;;0.30;;
51190;SDS011;37253;48.736;9.294;2023-05-10T06:01:36;0.73;;;0.35;;
51190;SDS011;37253;48.736;9.294;2023-05-10T06:03:36;1.58;;;0.30;;
51190;SDS011;37253;48.736;9.294;2023-05-10T06:05:36;0.95;;;0.35;;
51190;SDS011;37253;48.736;9.294;2023-05-10T06:07:37;1.27;;;0.30;;
51190;SDS011;37253;48.736;9.294;2023-05-10T06:09:37;1.88;;;0.30;;
51190;SDS011;37253;48.736;9.294;2023-05-10T06:11:37;0.50;;;0.30;;
51190;SDS011;37253;48.736;9.294;2023-05-10T06:13:38;0.20;;;0.20;;
51190;SDS011;37253;48.736;9.294;2023-05-10T06:15:38;0.52;;;0.40;;
51190;SDS011;37253;48.736;9.294;2023-05-10T06:17:38;0.35;;;0.30;;
51190;SDS011;37253;48.736;9.294;2023-05-10T06:19:40;0.30;;;0.30;;
51190;SDS011;37253;48.736;9.294;2023-05-10T06:21:40;0.38;;;0.30;;
51190;SDS011;37253;48.736;9.294;2023-05-10T06:23:40;0.63;;;0.25;;
51190;SDS011;37253;48.736;9.294;2023-05-10T06:25:41;0.30;;;0.30;;
51190;SDS011;37253;48.736;9.294;2023-05-10T06:27:41;0.50;;;0.32;;
51190;SDS011;37253;48.736;9.294;2023-05-10T06:29:41;0.30;;;0.30;;
51190;SDS011;37253;48.736;9.294;2023-05-10T06:31:42;0.55;;;0.30;;
51190;SDS011;37253;48.736;9.294;2023-05-10T06:33:42;0.30;;;0.30;;
51190;SDS011;37253;48.736;9.294;2023-05-10T06:35:42;0.30;;;0.30;;
51190;SDS011;37253;48.736;9.294;2023-05-10T06:37:42;0.70;;;0.20;;
51190;SDS011;37253;48.736;9.294;2023-05-10T06:39:43;1.42;;;0.30;;
51190;SDS011;37253;48.736;9.294;2023-05-10T06:41:43;0.50;;;0.30;;
51190;SDS011;37253;48.736;9.294;2023-05-10T06:43:43;0.30;;;0.30;;
51190;SDS011;37253;48.736;9.294;2023-05-10T06:45:44;0.30;;;0.30;;
51190;SDS011;37253;48.736;9.294;2023-05-10T06:47:44;0.43;;;0.30;;
51190;SDS011;37253;48.736;9.294;2023-05-10T06:49:45;0.57;;;0.20;;
51190;SDS011;37253;48.736;9.294;2023-05-10T06:51:46;0.45;;;0.30;;
51190;SDS011;37253;48.736;9.294;2023-05-10T06:53:46;0.55;;;0.40;;
51190;SDS011;37253;48.736;9.294;2023-05-10T06:55:46;0.50;;;0.20;;
51190;SDS011;37253;48.736;9.294;2023-05-10T06:57:46;0.28;;;0.28;;
51190;SDS011;37253;48.736;9.294;2023-05-10T06:59:47;0.50;;;0.30;;
51190;SDS011;37253;48.736;9.294;2023-05-10T07:01:48;1.15;;;0.40;;
51190;SDS011;37253;48.736;9.294;2023-05-10T07:03:48;0.45;;;0.30;;
51190;SDS011;37253;48.736;9.294;2023-05-10T07:05:48;0.40;;;0.28;;
51190;SDS011;37253;48.736;9.294;2023-05-10T07:07:48;0.45;;;0.30;;
51190;SDS011;37253;48.736;9.294;2023-05-10T07:09:49;0.25;;;0.25;;
51190;SDS011;37253;48.736;9.294;2023-05-10T07:11:50;0.38;;;0.38;;
51190;SDS011;37253;48.736;9.294;2023-05-10T07:13:50;0.20;;;0.20;;
51190;SDS011;37253;48.736;9.294;2023-05-10T07:15:50;0.30;;;0.30;;
51190;SDS011;37253;48.736;9.294;2023-05-10T07:17:50;0.75;;;0.40;;
51190;SDS011;37253;48.736;9.294;2023-05-10T07:19:51;4.95;;;0.40;;
51190;SDS011;37253;48.736;9.294;2023-05-10T07:21:52;0.93;;;0.40;;
51190;SDS011;37253;48.736;9.294;2023-05-10T07:23:52;0.40;;;0.40;;
51190;SDS011;37253;48.736;9.294;2023-05-10T07:25:53;1.77;;;0.20;;
51190;SDS011;37253;48.736;9.294;2023-05-10T07:27:53;0.30;;;0.30;;
51190;SDS011;37253;48.736;9.294;2023-05-10T07:29:53;1.25;;;0.32;;
51190;SDS011;37253;48.736;9.294;2023-05-10T07:31:54;0.55;;;0.40;;
51190;SDS011;37253;48.736;9.294;2023-05-10T07:33:54;0.63;;;0.35;;
51190;SDS011;37253;48.736;9.294;2023-05-10T07:35:55;1.75;;;0.30;;
51190;SDS011;37253;48.736;9.294;2023-05-10T07:37:55;0.25;;;0.20;;
51190;SDS011;37253;48.736;9.294;2023-05-10T07:39:56;0.35;;;0.30;;
51190;SDS011;37253;48.736;9.294;2023-05-10T07:41:56;0.73;;;0.30;;
51190;SDS011;37253;48.736;9.294;2023-05-10T07:43:56;0.25;;;0.20;;
51190;SDS011;37253;48.736;9.294;2023-05-10T07:45:57;0.40;;;0.30;;
51190;SDS011;37253;48.736;9.294;2023-05-10T07:47:59;0.30;;;0.30;;
51190;SDS011;37253;48.736;9.294;2023-05-10T07:50:00;0.40;;;0.28;;
51190;SDS011;37253;48.736;9.294;2023-05-10T07:52:00;0.60;;;0.40;;
51190;SDS011;37253;48.736;9.294;2023-05-10T07:54:00;0.20;;;0.20;;
51190;SDS011;37253;48.736;9.294;2023-05-10T07:56:19;0.88;;;0.30;;
51190;SDS011;37253;48.736;9.294;2023-05-10T07:58:20;1.13;;;0.30;;
51190;SDS011;37253;48.736;9.294;2023-05-10T08:00:20;1.52;;;0.35;;
51190;SDS011;37253;48.736;9.294;2023-05-10T08:02:21;1.13;;;0.32;;
51190;SDS011;37253;48.736;9.294;2023-05-10T08:04:21;8.02;;;0.77;;
51190;SDS011;37253;48.736;9.294;2023-05-10T08:06:22;1.25;;;0.30;;
51190;SDS011;37253;48.736;9.294;2023-05-10T08:08:22;13.13;;;0.50;;
51190;SDS011;37253;48.736;9.294;2023-05-10T08:10:24;1.23;;;0.45;;
51190;SDS011;37253;48.736;9.294;2023-05-10T08:12:24;1.42;;;0.30;;
51190;SDS011;37253;48.736;9.294;2023-05-10T08:14:24;3.42;;;0.50;;
51190;SDS011;37253;48.736;9.294;2023-05-10T08:16:25;1.15;;;0.40;;
51190;SDS011;37253;48.736;9.294;2023-05-10T08:18:26;3.03;;;0.60;;
51190;SDS011;37253;48.736;9.294;2023-05-10T08:20:26;1.40;;;0.50;;
51190;SDS011;37253;48.736;9.294;2023-05-10T08:22:26;1.95;;;0.38;;
51190;SDS011;37253;48.736;9.294;2023-05-10T08:24:27;1.30;;;0.40;;
51190;SDS011;37253;48.736;9.294;2023-05-10T08:26:27;3.65;;;0.35;;
51190;SDS011;37253;48.736;9.294;2023-05-10T08:28:28;1.55;;;0.30;;
51190;SDS011;37253;48.736;9.294;2023-05-10T08:30:28;2.85;;;0.43;;
51190;SDS011;37253;48.736;9.294;2023-05-10T08:32:28;1.45;;;0.40;;
51190;SDS011;37253;48.736;9.294;2023-05-10T08:34:29;2.13;;;0.40;;
51190;SDS011;37253;48.736;9.294;2023-05-10T08:36:31;3.75;;;0.43;;
51190;SDS011;37253;48.736;9.294;2023-05-10T08:38:32;0.60;;;0.30;;
51190;SDS011;37253;48.736;9.294;2023-05-10T08:40:32;0.98;;;0.40;;
51190;SDS011;37253;48.736;9.294;2023-05-10T08:42:33;3.88;;;0.47;;
51190;SDS011;37253;48.736;9.294;2023-05-10T08:44:36;0.32;;;0.30;;
51190;SDS011;37253;48.736;9.294;2023-05-10T08:46:36;0.68;;;0.40;;
51190;SDS011;37253;48.736;9.294;2023-05-10T08:48:39;0.73;;;0.20;;
51190;SDS011;37253;48.736;9.294;2023-05-10T08:50:41;2.40;;;0.40;;
51190;SDS011;37253;48.736;9.294;2023-05-10T08:52:41;0.77;;;0.40;;
51190;SDS011;37253;48.736;9.294;2023-05-10T08:54:42;0.32;;;0.32;;
51190;SDS011;37253;48.736;9.294;2023-05-10T08:56:42;1.15;;;0.30;;
51190;SDS011;37253;48.736;9.294;2023-05-10T08:58:43;3.13;;;0.30;;
51190;SDS011;37253;48.736;9.294;2023-05-10T09:00:43;0.65;;;0.40;;
51190;SDS011;37253;48.736;9.294;2023-05-10T09:02:44;0.40;;;0.30;;
51190;SDS011;37253;48.736;9.294;2023-05-10T09:04:45;0.95;;;0.35;;
51190;SDS011;37253;48.736;9.294;2023-05-10T09:06:46;2.95;;;0.50;;
51190;SDS011;37253;48.736;9.294;2023-05-10T09:08:46;5.00;;;0.35;;
51190;SDS011;37253;48.736;9.294;2023-05-10T09:10:47;0.57;;;0.22;;
51190;SDS011;37253;48.736;9.294;2023-05-10T09:12:48;1.75;;;0.40;;
51190;SDS011;37253;48.736;9.294;2023-05-10T09:14:48;2.08;;;0.45;;
51190;SDS011;37253;48.736;9.294;2023-05-10T09:16:50;1.27;;;0.40;;
51190;SDS011;37253;48.736;9.294;2023-05-10T09:18:50;1.15;;;0.40;;
51190;SDS011;37253;48.736;9.294;2023-05-10T09:20:51;1.63;;;0.60;;
51190;SDS011;37253;48.736;9.294;2023-05-10T09:22:51;2.72;;;0.38;;
51190;SDS011;37253;48.736;9.294;2023-05-10T09:25:08;1.10;;;0.47;;
51190;SDS011;37253;48.736;9.294;2023-05-10T09:27:12;1.08;;;0.40;;
51190;SDS011;37253;48.736;9.294;2023-05-10T09:29:12;0.73;;;0.40;;
51190;SDS011;37253;48.736;9.294;2023-05-10T09:31:13;2.45;;;0.88;;
51190;SDS011;37253;48.736;9.294;2023-05-10T09:33:13;2.10;;;0.50;;
51190;SDS011;37253;48.736;9.294;2023-05-10T09:35:16;1.10;;;0.30;;
51190;SDS011;37253;48.736;9.294;2023-05-10T09:37:17;1.60;;;0.40;;
51190;SDS011;37253;48.736;9.294;2023-05-10T09:39:17;1.02;;;0.45;;
51190;SDS011;37253;48.736;9.294;2023-05-10T09:41:18;0.93;;;0.50;;
51190;SDS011;37253;48.736;9.294;2023-05-10T09:43:20;1.88;;;0.38;;
51190;SDS011;37253;48.736;9.294;2023-05-10T09:45:20;1.38;;;0.50;;
51190;SDS011;37253;48.736;9.294;2023-05-10T09:47:21;2.80;;;0.40;;
51190;SDS011;37253;48.736;9.294;2023-05-10T09:49:21;0.32;;;0.20;;
51190;SDS011;37253;48.736;9.294;2023-05-10T09:51:23;3.53;;;0.40;;
51190;SDS011;37253;48.736;9.294;2023-05-10T09:53:24;1.70;;;0.30;;
51190;SDS011;37253;48.736;9.294;2023-05-10T09:55:25;3.95;;;0.50;;
51190;SDS011;37253;48.736;9.294;2023-05-10T09:57:46;1.75;;;0.30;;
51190;SDS011;37253;48.736;9.294;2023-05-10T09:59:50;0.98;;;0.35;;
51190;SDS011;37253;48.736;9.294;2023-05-10T10:01:51;0.47;;;0.40;;
51190;SDS011;37253;48.736;9.294;2023-05-10T10:03:52;1.77;;;0.45;;
51190;SDS011;37253;48.736;9.294;2023-05-10T10:05:53;2.55;;;0.50;;
51190;SDS011;37253;48.736;9.294;2023-05-10T10:07:56;0.90;;;0.30;;
51190;SDS011;37253;48.736;9.294;2023-05-10T10:09:58;0.55;;;0.30;;
51190;SDS011;37253;48.736;9.294;2023-05-10T10:12:02;1.42;;;0.40;;
51190;SDS011;37253;48.736;9.294;2023-05-10T10:14:02;0.65;;;0.30;;
51190;SDS011;37253;48.736;9.294;2023-05-10T10:16:03;1.38;;;0.30;;
51190;SDS011;37253;48.736;9.294;2023-05-10T10:18:03;3.42;;;0.35;;
51190;SDS011;37253;48.736;9.294;2023-05-10T10:20:05;0.77;;;0.40;;
51190;SDS011;37253;48.736;9.294;2023-05-10T10:22:06;0.75;;;0.40;;
51190;SDS011;37253;48.736;9.294;2023-05-10T10:24:07;0.95;;;0.28;;
51190;SDS011;37253;48.736;9.294;2023-05-10T10:26:07;1.77;;;0.30;;
51190;SDS011;37253;48.736;9.294;2023-05-10T10:28:10;0.30;;;0.30;;
51190;SDS011;37253;48.736;9.294;2023-05-10T10:30:31;0.50;;;0.35;;
51190;SDS011;37253;48.736;9.294;2023-05-10T10:32:51;1.42;;;0.30;;
51190;SDS011;37253;48.736;9.294;2023-05-10T10:35:10;0.63;;;0.30;;
51190;SDS011;37253;48.736;9.294;2023-05-10T10:37:11;0.22;;;0.22;;
51190;SDS011;37253;48.736;9.294;2023-05-10T10:39:11;1.95;;;0.50;;
51190;SDS011;37253;48.736;9.294;2023-05-10T10:43:27;0.68;;;0.35;;
51190;SDS011;37253;48.736;9.294;2023-05-10T10:45:28;0.52;;;0.30;;
51190;SDS011;37253;48.736;9.294;2023-05-10T10:47:29;4.07;;;0.30;;
51190;SDS011;37253;48.736;9.294;2023-05-10T10:52:12;2.50;;;0.32;;
51190;SDS011;37253;48.736;9.294;2023-05-10T10:54:21;0.73;;;0.40;;
51190;SDS011;37253;48.736;9.294;2023-05-10T10:56:27;2.05;;;0.32;;
51190;SDS011;37253;48.736;9.294;2023-05-10T10:58:31;1.52;;;0.40;;
51190;SDS011;37253;48.736;9.294;2023-05-10T11:00:37;2.15;;;0.40;;
51190;SDS011;37253;48.736;9.294;2023-05-10T11:04:42;1.17;;;0.40;;
51190;SDS011;37253;48.736;9.294;2023-05-10T11:06:43;0.80;;;0.32;;
51190;SDS011;37253;48.736;9.294;2023-05-10T11:08:43;1.63;;;0.40;;
51190;SDS011;37253;48.736;9.294;2023-05-10T11:13:01;1.40;;;0.50;;
51190;SDS011;37253;48.736;9.294;2023-05-10T11:15:02;0.30;;;0.30;;
51190;SDS011;37253;48.736;9.294;2023-05-10T11:17:17;3.83;;;0.30;;
51190;SDS011;37253;48.736;9.294;2023-05-10T11:19:29;0.65;;;0.30;;
51190;SDS011;37253;48.736;9.294;2023-05-10T11:23:31;1.92;;;0.40;;
51190;SDS011;37253;48.736;9.294;2023-05-10T11:25:32;5.03;;;0.30;;
51190;SDS011;37253;48.736;9.294;2023-05-10T11:27:33;0.88;;;0.30;;
51190;SDS011;37253;48.736;9.294;2023-05-10T11:29:37;1.95;;;0.30;;
51190;SDS011;37253;48.736;9.294;2023-05-10T11:31:44;1.95;;;0.30;;
51190;SDS011;37253;48.736;9.294;2023-05-10T11:33:47;0.30;;;0.30;;
51190;SDS011;37253;48.736;9.294;2023-05-10T11:35:52;1.35;;;0.35;;
51190;SDS011;37253;48.736;9.294;2023-05-10T11:37:52;0.73;;;0.30;;
51190;SDS011;37253;48.736;9.294;2023-05-10T11:39:54;1.33;;;0.40;;
51190;SDS011;37253;48.736;9.294;2023-05-10T11:41:54;0.63;;;0.38;;
51190;SDS011;37253;48.736;9.294;2023-05-10T11:43:55;1.00;;;0.30;;
51190;SDS011;37253;48.736;9.294;2023-05-10T11:45:56;1.10;;;0.38;;
51190;SDS011;37253;48.736;9.294;2023-05-10T11:47:57;1.65;;;0.30;;
51190;SDS011;37253;48.736;9.294;2023-05-10T11:49:57;1.15;;;0.40;;
51190;SDS011;37253;48.736;9.294;2023-05-10T11:52:05;2.47;;;0.43;;
51190;SDS011;37253;48.736;9.294;2023-05-10T11:54:07;3.10;;;0.30;;
51190;SDS011;37253;48.736;9.294;2023-05-10T11:56:09;1.10;;;0.40;;
51190;SDS011;37253;48.736;9.294;2023-05-10T11:58:10;0.55;;;0.30;;
51190;SDS011;37253;48.736;9.294;2023-05-10T12:00:10;0.68;;;0.30;;
51190;SDS011;37253;48.736;9.294;2023-05-10T12:02:12;1.30;;;0.40;;
51190;SDS011;37253;48.736;9.294;2023-05-10T12:04:13;1.25;;;0.40;;
51190;SDS011;37253;48.736;9.294;2023-05-10T12:06:13;1.40;;;0.30;;
51190;SDS011;37253;48.736;9.294;2023-05-10T12:08:14;2.83;;;0.35;;
51190;SDS011;37253;48.736;9.294;2023-05-10T12:10:15;0.90;;;0.30;;
51190;SDS011;37253;48.736;9.294;2023-05-10T12:12:17;1.08;;;0.30;;
51190;SDS011;37253;48.736;9.294;2023-05-10T12:14:17;2.30;;;0.30;;
51190;SDS011;37253;48.736;9.294;2023-05-10T12:16:21;1.27;;;0.40;;
51190;SDS011;37253;48.736;9.294;2023-05-10T12:18:25;0.70;;;0.40;;
51190;SDS011;37253;48.736;9.294;2023-05-10T12:20:27;0.40;;;0.30;;
51190;SDS011;37253;48.736;9.294;2023-05-10T12:22:27;1.15;;;0.40;;
51190;SDS011;37253;48.736;9.294;2023-05-10T12:24:28;0.30;;;0.30;;
51190;SDS011;37253;48.736;9.294;2023-05-10T12:26:28;1.15;;;0.40;;
51190;SDS011;37253;48.736;9.294;2023-05-10T12:28:29;2.70;;;0.30;;
51190;SDS011;37253;48.736;9.294;2023-05-10T12:30:31;0.85;;;0.40;;
51190;SDS011;37253;48.736;9.294;2023-05-10T12:32:39;1.27;;;0.40;;
51190;SDS011;37253;48.736;9.294;2023-05-10T12:34:40;0.77;;;0.32;;
51190;SDS011;37253;48.736;9.294;2023-05-10T12:36:40;1.20;;;0.30;;
51190;SDS011;37253;48.736;9.294;2023-05-10T12:38:41;2.38;;;0.50;;
51190;SDS011;37253;48.736;9.294;2023-05-10T12:40:43;1.42;;;0.30;;